»·PEaware :: UAL1825 KEGE-KABQ

UAL1825 :: KEGE-KABQ

FLIGHT INFORMATION

Flight Status: Arrived
Operator:
United Airlines
More flights by this operator :: More flights under this callsign
Pilot: Sanjiv S. (4490)
Aircraft: AIRBUS A320
(A320)
More flights by this aircraft type
Origin: KEGE Eagle Co Regl
United States
Destination: KABQ Albuquerque Intl Sunport
United States
More flights between these airports :: More routes between these airports
Route: GYPSM5 RLG KANON ALS J13 ESPAN FRIHO4
File this flight plan on PilotEdge
Remarks:
Altitude:
(Current/Filed)
29,000ft
Speed:
(Current/Filed)
440kts
Departed: 12-Dec-17 09:37 AM
Arrived: 12-Dec-17 10:34 AM
Distance/Time
Traveled:
276nm/0:57
Distance/Time
To Go:
Arrived

Flight Plot

Page will automatically refresh every two minutes.

Flight plan parsing failed; only flown route is shown


Map Options




Map Legend


Flown Route
Filed Route
Departure Airport
Arrival Airport
Navaid (VOR, NDB)
Fix

Horizontal Profiles

Position Reports

Time Latitude Longitude Heading Altitude Ground
Speed
12-Dec-17 09:05 39.640575 -106.914646 171 6555ft 0kts
12-Dec-17 09:06 39.640575 -106.914646 171 6555ft 0kts
12-Dec-17 09:07 39.640575 -106.914646 171 6555ft 0kts
12-Dec-17 09:08 39.640575 -106.914646 171 6555ft 0kts
12-Dec-17 09:09 39.640575 -106.914646 171 6555ft 0kts
12-Dec-17 09:10 39.640575 -106.914646 171 6555ft 0kts
12-Dec-17 09:11 39.640575 -106.914646 171 6555ft 0kts
12-Dec-17 09:12 39.640575 -106.914646 171 6555ft 0kts
12-Dec-17 09:13 39.640575 -106.914646 171 6555ft 0kts
12-Dec-17 09:14 39.640575 -106.914646 171 6555ft 0kts
12-Dec-17 09:15 39.640575 -106.914646 171 6555ft 0kts
12-Dec-17 09:16 39.640575 -106.914646 171 6555ft 0kts
12-Dec-17 09:17 39.640575 -106.914646 171 6555ft 0kts
12-Dec-17 09:18 39.640575 -106.914646 171 6555ft 0kts
12-Dec-17 09:19 39.640575 -106.914646 171 6555ft 0kts
12-Dec-17 09:20 39.640575 -106.914646 171 6555ft 0kts
12-Dec-17 09:21 39.640575 -106.914646 171 6555ft 0kts
12-Dec-17 09:22 39.640575 -106.914646 171 6555ft 0kts
12-Dec-17 09:23 39.640575 -106.914646 171 6555ft 0kts
12-Dec-17 09:24 39.640575 -106.914646 171 6555ft 0kts
12-Dec-17 09:25 39.640575 -106.914646 171 6555ft 0kts
12-Dec-17 09:26 39.640575 -106.914646 171 6555ft 0kts
12-Dec-17 09:27 39.640575 -106.914646 171 6555ft 0kts
12-Dec-17 09:28 39.640575 -106.914646 171 6555ft 0kts
12-Dec-17 09:29 39.640575 -106.914646 171 6555ft 0kts
12-Dec-17 09:30 39.640575 -106.914646 171 6555ft 0kts
12-Dec-17 09:31 39.640575 -106.914646 171 6555ft 0kts
12-Dec-17 09:32 39.640575 -106.914646 171 6555ft 0kts
12-Dec-17 09:33 39.640600 -106.914650 172 6555ft 0kts
12-Dec-17 09:34 39.641001 -106.914778 142 6555ft 2kts
12-Dec-17 09:35 39.641161 -106.915323 81 6555ft 0kts
12-Dec-17 09:36 39.641161 -106.915325 81 6555ft 0kts
12-Dec-17 09:37 39.641242 -106.914617 78 6555ft 6kts
12-Dec-17 09:38 39.642298 -106.910944 81 6555ft 14kts
12-Dec-17 09:39 39.642894 -106.905190 82 6555ft 17kts
12-Dec-17 09:40 39.643328 -106.902093 51 6555ft 0kts
12-Dec-17 09:41 39.643328 -106.902093 51 6555ft 0kts
12-Dec-17 09:42 39.644245 -106.902004 340 6555ft 5kts
12-Dec-17 09:43 39.643504 -106.910162 260 6555ft 105kts
12-Dec-17 09:44 39.628345 -106.956263 225 8458ft 151kts
12-Dec-17 09:45 39.595565 -107.007378 259 9830ft 230kts
12-Dec-17 09:46 39.632733 -107.071583 355 11511ft 294kts
12-Dec-17 09:47 39.720112 -107.066982 340 13053ft 347kts
12-Dec-17 09:48 39.808045 -107.040977 51 15379ft 369kts
12-Dec-17 09:49 39.850683 -106.918137 65 17458ft 386kts
12-Dec-17 09:50 39.892625 -106.787749 65 19316ft 400kts
12-Dec-17 09:51 39.880324 -106.651874 132 20960ft 419kts
12-Dec-17 09:52 39.776786 -106.595181 167 22510ft 426kts
12-Dec-17 09:53 39.663349 -106.557802 166 23936ft 437kts
12-Dec-17 09:54 39.547970 -106.519596 166 25215ft 448kts
12-Dec-17 09:55 39.430075 -106.480684 166 26360ft 459kts
12-Dec-17 09:56 39.306791 -106.440140 166 27448ft 469kts
12-Dec-17 09:57 39.181409 -106.399055 166 28507ft 478kts
12-Dec-17 09:58 39.054265 -106.357558 165 29473ft 485kts
12-Dec-17 09:59 38.934889 -106.318699 166 29622ft 479kts
12-Dec-17 10:00 38.818871 -106.281088 166 29599ft 476kts
12-Dec-17 10:01 38.693104 -106.240477 166 29611ft 477kts
12-Dec-17 10:01 38.587295 -106.206414 166 29668ft 477kts
12-Dec-17 10:02 38.461859 -106.166168 166 29683ft 477kts
12-Dec-17 10:04 38.314807 -106.119167 166 29678ft 477kts
12-Dec-17 10:05 38.188663 -106.079006 166 29675ft 477kts
12-Dec-17 10:05 38.083743 -106.045713 166 29675ft 477kts
12-Dec-17 10:06 37.958380 -106.006059 166 29657ft 476kts
12-Dec-17 10:07 37.841178 -105.969112 166 29644ft 475kts
12-Dec-17 10:08 37.715976 -105.929780 166 29628ft 474kts
12-Dec-17 10:09 37.591683 -105.890869 166 29627ft 474kts
12-Dec-17 10:10 37.467951 -105.852264 166 29634ft 475kts
12-Dec-17 10:11 37.341578 -105.826839 187 29646ft 473kts
12-Dec-17 10:12 37.220483 -105.873106 201 29665ft 469kts
12-Dec-17 10:13 37.101950 -105.925937 201 29631ft 467kts
12-Dec-17 10:14 36.982897 -105.978818 199 29625ft 467kts
12-Dec-17 10:15 36.880688 -106.024080 199 29652ft 465kts
12-Dec-17 10:16 36.765156 -106.075084 199 29521ft 452kts
12-Dec-17 10:17 36.654535 -106.123731 199 28300ft 422kts
12-Dec-17 10:18 36.549851 -106.169692 200 26680ft 413kts
12-Dec-17 10:19 36.444923 -106.215621 200 25790ft 407kts
12-Dec-17 10:20 36.341461 -106.260775 200 24855ft 402kts
12-Dec-17 10:21 36.239459 -106.305165 200 24033ft 397kts
12-Dec-17 10:22 36.137822 -106.349266 200 23219ft 393kts
12-Dec-17 10:23 36.037844 -106.392519 200 22530ft 389kts
12-Dec-17 10:24 35.938050 -106.435575 200 21865ft 385kts
12-Dec-17 10:25 35.845621 -106.475349 200 21210ft 382kts
12-Dec-17 10:26 35.749047 -106.516802 200 20635ft 378kts
12-Dec-17 10:27 35.652758 -106.558027 200 20014ft 375kts
12-Dec-17 10:28 35.558021 -106.598486 200 18738ft 380kts
12-Dec-17 10:29 35.465332 -106.637924 200 15527ft 359kts
12-Dec-17 10:30 35.382307 -106.673203 200 14211ft 355kts
12-Dec-17 10:31 35.296176 -106.709729 200 11177ft 331kts
12-Dec-17 10:32 35.219394 -106.742206 200 10059ft 269kts
12-Dec-17 10:33 35.149291 -106.769031 187 9135ft 272kts
12-Dec-17 10:34 35.076249 -106.776490 184 8034ft 260kts
12-Dec-17 10:35 35.029278 -106.738580 85 6877ft 204kts
12-Dec-17 10:36 35.045806 -106.684071 91 5932ft 159kts
12-Dec-17 10:37 35.044413 -106.634191 87 5533ft 149kts
12-Dec-17 10:38 35.044212 -106.594410 83 5339ft 51kts
12-Dec-17 10:39 35.045157 -106.591363 40 5342ft 2kts
12-Dec-17 10:40 35.045860 -106.595348 269 5338ft 18kts
12-Dec-17 10:41 35.045789 -106.599479 267 5333ft 16kts
12-Dec-17 10:42 35.045786 -106.605996 270 5324ft 22kts
12-Dec-17 10:43 35.045728 -106.613182 250 5324ft 12kts
12-Dec-17 10:44 35.046298 -106.617031 352 5324ft 13kts
12-Dec-17 10:45 35.046891 -106.616921 7 5324ft 0kts

Navigation Log

Ident Type
Flight plan parsing failed, navigation log unavailable